sensor_id;sensor_type;location;lat;lon;timestamp;P1;durP1;ratioP1;P2;durP2;ratioP2
8458;SDS011;4266;48.816;9.154;2022-10-03T00:00:15;9.57;;;8.67;;
8458;SDS011;4266;48.816;9.154;2022-10-03T00:05:34;15.33;;;10.27;;
8458;SDS011;4266;48.816;9.154;2022-10-03T00:08:19;12.30;;;10.30;;
8458;SDS011;4266;48.816;9.154;2022-10-03T00:11:05;9.93;;;8.90;;
8458;SDS011;4266;48.816;9.154;2022-10-03T00:13:43;9.83;;;8.93;;
8458;SDS011;4266;48.816;9.154;2022-10-03T00:16:14;10.10;;;9.27;;
8458;SDS011;4266;48.816;9.154;2022-10-03T00:24:30;9.73;;;8.73;;
8458;SDS011;4266;48.816;9.154;2022-10-03T00:26:56;10.57;;;9.63;;
8458;SDS011;4266;48.816;9.154;2022-10-03T00:37:46;9.80;;;8.80;;
8458;SDS011;4266;48.816;9.154;2022-10-03T00:43:40;11.03;;;9.93;;
8458;SDS011;4266;48.816;9.154;2022-10-03T00:48:54;13.43;;;10.50;;
8458;SDS011;4266;48.816;9.154;2022-10-03T00:57:36;12.43;;;9.73;;
8458;SDS011;4266;48.816;9.154;2022-10-03T01:03:04;11.27;;;10.17;;
8458;SDS011;4266;48.816;9.154;2022-10-03T01:05:46;17.97;;;12.50;;
8458;SDS011;4266;48.816;9.154;2022-10-03T01:10:49;14.77;;;11.53;;
8458;SDS011;4266;48.816;9.154;2022-10-03T01:13:17;13.77;;;11.13;;
8458;SDS011;4266;48.816;9.154;2022-10-03T01:15:51;13.23;;;11.90;;
8458;SDS011;4266;48.816;9.154;2022-10-03T01:18:21;12.67;;;11.47;;
8458;SDS011;4266;48.816;9.154;2022-10-03T01:20:48;12.40;;;11.20;;
8458;SDS011;4266;48.816;9.154;2022-10-03T01:23:36;12.63;;;11.43;;
8458;SDS011;4266;48.816;9.154;2022-10-03T01:28:46;13.77;;;12.40;;
8458;SDS011;4266;48.816;9.154;2022-10-03T01:31:22;14.53;;;13.03;;
8458;SDS011;4266;48.816;9.154;2022-10-03T01:33:46;18.50;;;14.90;;
8458;SDS011;4266;48.816;9.154;2022-10-03T01:36:15;17.03;;;14.47;;
8458;SDS011;4266;48.816;9.154;2022-10-03T01:38:43;17.13;;;14.10;;
8458;SDS011;4266;48.816;9.154;2022-10-03T01:41:11;18.23;;;14.33;;
8458;SDS011;4266;48.816;9.154;2022-10-03T01:43:40;22.43;;;14.50;;
8458;SDS011;4266;48.816;9.154;2022-10-03T01:46:05;18.10;;;15.03;;
8458;SDS011;4266;48.816;9.154;2022-10-03T01:48:34;19.73;;;15.20;;
8458;SDS011;4266;48.816;9.154;2022-10-03T01:51:15;18.30;;;14.03;;
8458;SDS011;4266;48.816;9.154;2022-10-03T01:53:49;15.03;;;12.90;;
8458;SDS011;4266;48.816;9.154;2022-10-03T01:56:17;18.53;;;14.93;;
8458;SDS011;4266;48.816;9.154;2022-10-03T01:58:46;16.83;;;15.07;;
8458;SDS011;4266;48.816;9.154;2022-10-03T02:01:30;17.47;;;14.43;;
8458;SDS011;4266;48.816;9.154;2022-10-03T02:05:02;19.97;;;15.23;;
8458;SDS011;4266;48.816;9.154;2022-10-03T02:06:39;19.33;;;16.03;;
8458;SDS011;4266;48.816;9.154;2022-10-03T02:09:47;20.07;;;15.90;;
8458;SDS011;4266;48.816;9.154;2022-10-03T02:11:58;18.33;;;14.67;;
8458;SDS011;4266;48.816;9.154;2022-10-03T02:14:24;20.70;;;15.43;;
8458;SDS011;4266;48.816;9.154;2022-10-03T02:19:41;19.33;;;15.67;;
8458;SDS011;4266;48.816;9.154;2022-10-03T02:22:12;24.73;;;16.33;;
8458;SDS011;4266;48.816;9.154;2022-10-03T02:24:45;23.23;;;17.07;;
8458;SDS011;4266;48.816;9.154;2022-10-03T02:27:19;22.37;;;16.77;;
8458;SDS011;4266;48.816;9.154;2022-10-03T02:31:00;18.50;;;16.00;;
8458;SDS011;4266;48.816;9.154;2022-10-03T02:35:23;20.87;;;16.60;;
8458;SDS011;4266;48.816;9.154;2022-10-03T02:39:08;24.27;;;16.50;;
8458;SDS011;4266;48.816;9.154;2022-10-03T02:40:45;22.17;;;17.07;;
8458;SDS011;4266;48.816;9.154;2022-10-03T02:43:29;19.80;;;16.77;;
8458;SDS011;4266;48.816;9.154;2022-10-03T02:54:24;22.30;;;16.50;;
8458;SDS011;4266;48.816;9.154;2022-10-03T02:56:56;24.27;;;17.33;;
8458;SDS011;4266;48.816;9.154;2022-10-03T02:59:27;21.83;;;16.80;;
8458;SDS011;4266;48.816;9.154;2022-10-03T03:04:59;19.83;;;15.07;;
8458;SDS011;4266;48.816;9.154;2022-10-03T03:07:38;19.63;;;16.33;;
8458;SDS011;4266;48.816;9.154;2022-10-03T03:12:54;30.40;;;16.87;;
8458;SDS011;4266;48.816;9.154;2022-10-03T03:15:32;29.60;;;17.73;;
8458;SDS011;4266;48.816;9.154;2022-10-03T03:21:04;19.60;;;15.93;;
8458;SDS011;4266;48.816;9.154;2022-10-03T03:29:12;21.83;;;16.33;;
8458;SDS011;4266;48.816;9.154;2022-10-03T03:31:45;24.60;;;15.40;;
8458;SDS011;4266;48.816;9.154;2022-10-03T03:34:30;22.30;;;15.87;;
8458;SDS011;4266;48.816;9.154;2022-10-03T03:37:11;23.90;;;17.50;;
8458;SDS011;4266;48.816;9.154;2022-10-03T03:39:43;23.13;;;16.60;;
8458;SDS011;4266;48.816;9.154;2022-10-03T03:42:25;26.17;;;18.17;;
8458;SDS011;4266;48.816;9.154;2022-10-03T03:45:07;28.73;;;17.83;;
8458;SDS011;4266;48.816;9.154;2022-10-03T03:47:47;21.80;;;16.03;;
8458;SDS011;4266;48.816;9.154;2022-10-03T03:50:19;21.60;;;15.87;;
8458;SDS011;4266;48.816;9.154;2022-10-03T03:55:53;20.97;;;15.10;;
8458;SDS011;4266;48.816;9.154;2022-10-03T03:58:37;20.83;;;16.27;;
8458;SDS011;4266;48.816;9.154;2022-10-03T04:01:15;20.67;;;16.00;;
8458;SDS011;4266;48.816;9.154;2022-10-03T04:03:44;26.83;;;16.70;;
8458;SDS011;4266;48.816;9.154;2022-10-03T04:06:26;20.23;;;14.87;;
8458;SDS011;4266;48.816;9.154;2022-10-03T04:09:01;18.57;;;14.30;;
8458;SDS011;4266;48.816;9.154;2022-10-03T04:12:03;22.70;;;16.83;;
8458;SDS011;4266;48.816;9.154;2022-10-03T04:14:38;23.40;;;15.80;;
8458;SDS011;4266;48.816;9.154;2022-10-03T04:17:25;20.37;;;15.00;;
8458;SDS011;4266;48.816;9.154;2022-10-03T04:23:06;25.77;;;14.83;;
8458;SDS011;4266;48.816;9.154;2022-10-03T04:25:49;19.50;;;14.37;;
8458;SDS011;4266;48.816;9.154;2022-10-03T04:28:29;21.60;;;15.43;;
8458;SDS011;4266;48.816;9.154;2022-10-03T04:31:00;21.40;;;15.40;;
8458;SDS011;4266;48.816;9.154;2022-10-03T04:33:39;18.93;;;14.27;;
8458;SDS011;4266;48.816;9.154;2022-10-03T04:36:28;23.67;;;15.37;;
8458;SDS011;4266;48.816;9.154;2022-10-03T04:38:59;19.10;;;14.53;;
8458;SDS011;4266;48.816;9.154;2022-10-03T04:41:30;23.77;;;14.40;;
8458;SDS011;4266;48.816;9.154;2022-10-03T04:43:59;19.67;;;13.63;;
8458;SDS011;4266;48.816;9.154;2022-10-03T04:46:38;20.73;;;14.87;;
8458;SDS011;4266;48.816;9.154;2022-10-03T04:51:44;22.07;;;14.77;;
8458;SDS011;4266;48.816;9.154;2022-10-03T04:54:15;19.47;;;13.93;;
8458;SDS011;4266;48.816;9.154;2022-10-03T04:59:39;19.13;;;13.83;;
8458;SDS011;4266;48.816;9.154;2022-10-03T05:02:17;18.43;;;14.03;;
8458;SDS011;4266;48.816;9.154;2022-10-03T05:05:47;21.07;;;14.57;;
8458;SDS011;4266;48.816;9.154;2022-10-03T05:07:44;20.50;;;14.37;;
8458;SDS011;4266;48.816;9.154;2022-10-03T05:10:22;20.40;;;15.13;;
8458;SDS011;4266;48.816;9.154;2022-10-03T05:14:02;19.20;;;14.57;;
8458;SDS011;4266;48.816;9.154;2022-10-03T05:15:54;20.83;;;15.00;;
8458;SDS011;4266;48.816;9.154;2022-10-03T05:18:29;21.03;;;14.97;;
8458;SDS011;4266;48.816;9.154;2022-10-03T05:21:10;22.83;;;16.00;;
8458;SDS011;4266;48.816;9.154;2022-10-03T05:23:43;32.90;;;18.47;;
8458;SDS011;4266;48.816;9.154;2022-10-03T05:26:19;24.80;;;16.87;;
8458;SDS011;4266;48.816;9.154;2022-10-03T05:28:53;24.53;;;16.37;;
8458;SDS011;4266;48.816;9.154;2022-10-03T05:31:25;27.20;;;17.50;;
8458;SDS011;4266;48.816;9.154;2022-10-03T05:33:51;27.67;;;19.00;;
8458;SDS011;4266;48.816;9.154;2022-10-03T05:36:40;31.40;;;19.60;;
8458;SDS011;4266;48.816;9.154;2022-10-03T05:39:19;26.57;;;19.27;;
8458;SDS011;4266;48.816;9.154;2022-10-03T05:41:50;28.23;;;19.90;;
8458;SDS011;4266;48.816;9.154;2022-10-03T05:44:19;30.90;;;20.60;;
8458;SDS011;4266;48.816;9.154;2022-10-03T05:49:27;36.20;;;21.63;;
8458;SDS011;4266;48.816;9.154;2022-10-03T06:00:17;32.47;;;20.73;;
8458;SDS011;4266;48.816;9.154;2022-10-03T06:02:53;26.47;;;20.17;;
8458;SDS011;4266;48.816;9.154;2022-10-03T06:12:26;25.40;;;19.07;;
8458;SDS011;4266;48.816;9.154;2022-10-03T06:19:45;23.60;;;19.13;;
8458;SDS011;4266;48.816;9.154;2022-10-03T06:22:22;30.33;;;19.27;;
8458;SDS011;4266;48.816;9.154;2022-10-03T06:28:01;23.03;;;18.20;;
8458;SDS011;4266;48.816;9.154;2022-10-03T06:30:37;28.60;;;18.50;;
8458;SDS011;4266;48.816;9.154;2022-10-03T06:33:10;27.50;;;18.43;;
8458;SDS011;4266;48.816;9.154;2022-10-03T06:38:37;23.67;;;18.37;;
8458;SDS011;4266;48.816;9.154;2022-10-03T06:41:26;21.53;;;17.13;;
8458;SDS011;4266;48.816;9.154;2022-10-03T06:44:14;25.97;;;18.57;;
8458;SDS011;4266;48.816;9.154;2022-10-03T06:46:58;25.83;;;18.33;;
8458;SDS011;4266;48.816;9.154;2022-10-03T06:49:28;23.43;;;17.60;;
8458;SDS011;4266;48.816;9.154;2022-10-03T06:52:23;26.20;;;18.80;;
8458;SDS011;4266;48.816;9.154;2022-10-03T07:03:18;17.53;;;15.83;;
8458;SDS011;4266;48.816;9.154;2022-10-03T07:16:40;18.97;;;16.63;;
8458;SDS011;4266;48.816;9.154;2022-10-03T07:19:12;20.43;;;17.40;;
8458;SDS011;4266;48.816;9.154;2022-10-03T07:25:04;24.87;;;17.10;;
8458;SDS011;4266;48.816;9.154;2022-10-03T07:30:19;23.27;;;17.23;;
8458;SDS011;4266;48.816;9.154;2022-10-03T07:35:39;18.77;;;15.53;;
8458;SDS011;4266;48.816;9.154;2022-10-03T07:38:28;24.30;;;15.80;;
8458;SDS011;4266;48.816;9.154;2022-10-03T07:41:14;19.27;;;15.40;;
8458;SDS011;4266;48.816;9.154;2022-10-03T07:43:44;18.40;;;15.10;;
8458;SDS011;4266;48.816;9.154;2022-10-03T07:46:47;18.03;;;13.70;;
8458;SDS011;4266;48.816;9.154;2022-10-03T07:49:58;19.30;;;12.90;;
8458;SDS011;4266;48.816;9.154;2022-10-03T07:52:58;16.50;;;12.13;;
8458;SDS011;4266;48.816;9.154;2022-10-03T08:04:27;18.27;;;11.67;;
8458;SDS011;4266;48.816;9.154;2022-10-03T08:06:20;12.73;;;10.90;;
8458;SDS011;4266;48.816;9.154;2022-10-03T08:14:23;12.10;;;9.47;;
8458;SDS011;4266;48.816;9.154;2022-10-03T08:19:46;11.50;;;9.57;;
8458;SDS011;4266;48.816;9.154;2022-10-03T08:30:39;14.10;;;10.80;;
8458;SDS011;4266;48.816;9.154;2022-10-03T08:33:18;12.33;;;10.63;;
8458;SDS011;4266;48.816;9.154;2022-10-03T08:35:59;18.53;;;10.07;;
8458;SDS011;4266;48.816;9.154;2022-10-03T08:38:25;11.37;;;9.67;;
8458;SDS011;4266;48.816;9.154;2022-10-03T08:41:12;17.47;;;10.83;;
8458;SDS011;4266;48.816;9.154;2022-10-03T08:43:55;19.03;;;9.67;;
8458;SDS011;4266;48.816;9.154;2022-10-03T08:46:30;17.17;;;9.90;;
8458;SDS011;4266;48.816;9.154;2022-10-03T08:49:32;11.60;;;10.33;;
8458;SDS011;4266;48.816;9.154;2022-10-03T08:52:04;13.53;;;10.13;;
8458;SDS011;4266;48.816;9.154;2022-10-03T08:55:26;13.67;;;10.07;;
8458;SDS011;4266;48.816;9.154;2022-10-03T08:57:41;10.97;;;9.50;;
8458;SDS011;4266;48.816;9.154;2022-10-03T09:00:12;13.40;;;9.50;;
8458;SDS011;4266;48.816;9.154;2022-10-03T09:06:36;13.73;;;8.57;;
8458;SDS011;4266;48.816;9.154;2022-10-03T09:08:26;15.00;;;9.23;;
8458;SDS011;4266;48.816;9.154;2022-10-03T09:10:57;15.50;;;8.53;;
8458;SDS011;4266;48.816;9.154;2022-10-03T09:13:48;13.73;;;8.73;;
8458;SDS011;4266;48.816;9.154;2022-10-03T09:16:29;11.47;;;7.77;;
8458;SDS011;4266;48.816;9.154;2022-10-03T09:19:07;15.57;;;7.67;;
8458;SDS011;4266;48.816;9.154;2022-10-03T09:24:56;13.27;;;7.60;;
8458;SDS011;4266;48.816;9.154;2022-10-03T09:27:30;11.63;;;7.20;;
8458;SDS011;4266;48.816;9.154;2022-10-03T09:30:03;12.17;;;7.30;;
8458;SDS011;4266;48.816;9.154;2022-10-03T09:35:25;12.37;;;7.00;;
8458;SDS011;4266;48.816;9.154;2022-10-03T09:38:10;10.60;;;6.33;;
8458;SDS011;4266;48.816;9.154;2022-10-03T09:40:54;8.40;;;6.40;;
8458;SDS011;4266;48.816;9.154;2022-10-03T09:46:20;11.50;;;6.90;;
8458;SDS011;4266;48.816;9.154;2022-10-03T09:51:39;7.27;;;6.03;;
8458;SDS011;4266;48.816;9.154;2022-10-03T09:58:09;12.83;;;6.50;;
8458;SDS011;4266;48.816;9.154;2022-10-03T10:00:07;11.98;;;6.18;;
8458;SDS011;4266;48.816;9.154;2022-10-03T10:02:50;11.82;;;6.35;;
8458;SDS011;4266;48.816;9.154;2022-10-03T10:06:26;6.43;;;5.10;;
8458;SDS011;4266;48.816;9.154;2022-10-03T10:08:24;9.07;;;5.35;;
8458;SDS011;4266;48.816;9.154;2022-10-03T10:13:51;8.40;;;4.47;;
8458;SDS011;4266;48.816;9.154;2022-10-03T10:22:18;10.30;;;4.53;;
8458;SDS011;4266;48.816;9.154;2022-10-03T10:24:49;6.93;;;4.00;;
8458;SDS011;4266;48.816;9.154;2022-10-03T10:27:32;7.45;;;4.37;;
8458;SDS011;4266;48.816;9.154;2022-10-03T10:36:04;7.60;;;4.40;;
8458;SDS011;4266;48.816;9.154;2022-10-03T10:47:03;7.20;;;4.47;;
8458;SDS011;4266;48.816;9.154;2022-10-03T10:49:33;11.02;;;5.20;;
8458;SDS011;4266;48.816;9.154;2022-10-03T10:54:59;7.10;;;4.53;;
8458;SDS011;4266;48.816;9.154;2022-10-03T10:57:49;6.90;;;4.62;;
8458;SDS011;4266;48.816;9.154;2022-10-03T11:00:12;11.20;;;5.15;;
8458;SDS011;4266;48.816;9.154;2022-10-03T11:09:07;11.98;;;5.90;;
8458;SDS011;4266;48.816;9.154;2022-10-03T11:17:08;8.05;;;4.45;;
8458;SDS011;4266;48.816;9.154;2022-10-03T11:19:40;7.60;;;4.75;;
8458;SDS011;4266;48.816;9.154;2022-10-03T11:22:22;9.82;;;4.75;;
8458;SDS011;4266;48.816;9.154;2022-10-03T11:25:26;8.25;;;4.43;;
8458;SDS011;4266;48.816;9.154;2022-10-03T11:28:33;11.23;;;5.15;;
8458;SDS011;4266;48.816;9.154;2022-10-03T11:30:47;8.80;;;4.62;;
8458;SDS011;4266;48.816;9.154;2022-10-03T11:34:34;5.82;;;3.83;;
8458;SDS011;4266;48.816;9.154;2022-10-03T11:36:29;4.22;;;3.50;;
8458;SDS011;4266;48.816;9.154;2022-10-03T11:39:07;6.53;;;3.35;;
8458;SDS011;4266;48.816;9.154;2022-10-03T11:41:38;5.90;;;3.42;;
8458;SDS011;4266;48.816;9.154;2022-10-03T11:44:20;5.68;;;3.62;;
8458;SDS011;4266;48.816;9.154;2022-10-03T11:47:22;6.87;;;6.07;;
8458;SDS011;4266;48.816;9.154;2022-10-03T11:49:33;7.43;;;4.00;;
8458;SDS011;4266;48.816;9.154;2022-10-03T11:52:22;6.37;;;4.12;;
8458;SDS011;4266;48.816;9.154;2022-10-03T11:55:40;5.47;;;4.05;;
8458;SDS011;4266;48.816;9.154;2022-10-03T11:58:26;5.43;;;3.58;;
8458;SDS011;4266;48.816;9.154;2022-10-03T12:00:50;6.32;;;3.83;;
8458;SDS011;4266;48.816;9.154;2022-10-03T12:03:23;6.50;;;3.62;;
8458;SDS011;4266;48.816;9.154;2022-10-03T12:05:55;5.32;;;3.30;;
8458;SDS011;4266;48.816;9.154;2022-10-03T12:08:21;6.40;;;4.12;;
8458;SDS011;4266;48.816;9.154;2022-10-03T12:10:59;7.68;;;4.30;;
8458;SDS011;4266;48.816;9.154;2022-10-03T12:13:25;6.57;;;3.42;;
8458;SDS011;4266;48.816;9.154;2022-10-03T12:15:49;7.10;;;3.80;;
8458;SDS011;4266;48.816;9.154;2022-10-03T12:18:20;6.47;;;4.30;;
8458;SDS011;4266;48.816;9.154;2022-10-03T12:21:04;8.02;;;4.28;;
8458;SDS011;4266;48.816;9.154;2022-10-03T12:26:06;6.93;;;4.00;;
8458;SDS011;4266;48.816;9.154;2022-10-03T12:28:35;8.13;;;4.43;;
8458;SDS011;4266;48.816;9.154;2022-10-03T12:31:06;6.22;;;4.65;;
8458;SDS011;4266;48.816;9.154;2022-10-03T12:33:38;7.22;;;4.43;;
8458;SDS011;4266;48.816;9.154;2022-10-03T12:36:13;10.55;;;4.55;;
8458;SDS011;4266;48.816;9.154;2022-10-03T12:39:20;5.62;;;3.72;;
8458;SDS011;4266;48.816;9.154;2022-10-03T12:41:53;6.85;;;4.05;;
8458;SDS011;4266;48.816;9.154;2022-10-03T12:44:38;5.45;;;3.67;;
8458;SDS011;4266;48.816;9.154;2022-10-03T12:50:00;8.70;;;4.40;;
8458;SDS011;4266;48.816;9.154;2022-10-03T12:52:24;6.07;;;3.80;;
8458;SDS011;4266;48.816;9.154;2022-10-03T12:54:52;4.97;;;3.80;;
8458;SDS011;4266;48.816;9.154;2022-10-03T12:57:38;5.20;;;4.05;;
8458;SDS011;4266;48.816;9.154;2022-10-03T13:00:15;8.90;;;4.43;;
8458;SDS011;4266;48.816;9.154;2022-10-03T13:02:42;5.45;;;3.97;;
8458;SDS011;4266;48.816;9.154;2022-10-03T13:07:49;7.25;;;3.47;;
8458;SDS011;4266;48.816;9.154;2022-10-03T13:10:31;4.68;;;3.58;;
8458;SDS011;4266;48.816;9.154;2022-10-03T13:13:19;6.50;;;3.60;;
8458;SDS011;4266;48.816;9.154;2022-10-03T13:15:53;6.93;;;3.42;;
8458;SDS011;4266;48.816;9.154;2022-10-03T13:18:28;6.80;;;3.40;;
8458;SDS011;4266;48.816;9.154;2022-10-03T13:20:54;4.55;;;3.22;;
8458;SDS011;4266;48.816;9.154;2022-10-03T13:23:41;7.03;;;4.05;;
8458;SDS011;4266;48.816;9.154;2022-10-03T13:28:49;9.80;;;4.30;;
8458;SDS011;4266;48.816;9.154;2022-10-03T13:31:17;6.75;;;4.10;;
8458;SDS011;4266;48.816;9.154;2022-10-03T13:33:57;6.28;;;3.50;;
8458;SDS011;4266;48.816;9.154;2022-10-03T13:39:11;7.40;;;4.30;;
8458;SDS011;4266;48.816;9.154;2022-10-03T13:41:54;10.30;;;3.97;;
8458;SDS011;4266;48.816;9.154;2022-10-03T13:44:07;7.05;;;4.10;;
8458;SDS011;4266;48.816;9.154;2022-10-03T13:46:41;5.28;;;3.60;;
8458;SDS011;4266;48.816;9.154;2022-10-03T13:49:12;7.68;;;3.78;;
8458;SDS011;4266;48.816;9.154;2022-10-03T13:51:50;7.28;;;3.92;;
8458;SDS011;4266;48.816;9.154;2022-10-03T13:54:17;6.97;;;3.75;;
8458;SDS011;4266;48.816;9.154;2022-10-03T13:56:48;6.45;;;3.30;;
8458;SDS011;4266;48.816;9.154;2022-10-03T13:59:25;6.10;;;3.60;;
8458;SDS011;4266;48.816;9.154;2022-10-03T14:02:28;6.78;;;3.83;;
8458;SDS011;4266;48.816;9.154;2022-10-03T14:04:56;6.55;;;3.70;;
8458;SDS011;4266;48.816;9.154;2022-10-03T14:07:43;5.90;;;3.55;;
8458;SDS011;4266;48.816;9.154;2022-10-03T14:10:08;6.50;;;3.80;;
8458;SDS011;4266;48.816;9.154;2022-10-03T14:12:43;8.75;;;4.15;;
8458;SDS011;4266;48.816;9.154;2022-10-03T14:15:14;6.18;;;3.90;;
8458;SDS011;4266;48.816;9.154;2022-10-03T14:17:45;6.07;;;3.70;;
8458;SDS011;4266;48.816;9.154;2022-10-03T14:20:19;4.72;;;3.75;;
8458;SDS011;4266;48.816;9.154;2022-10-03T14:22:50;5.12;;;3.67;;
8458;SDS011;4266;48.816;9.154;2022-10-03T14:25:33;7.60;;;3.97;;
8458;SDS011;4266;48.816;9.154;2022-10-03T14:28:00;4.72;;;3.67;;
8458;SDS011;4266;48.816;9.154;2022-10-03T14:30:51;7.90;;;4.00;;
8458;SDS011;4266;48.816;9.154;2022-10-03T14:34:30;7.62;;;4.03;;
8458;SDS011;4266;48.816;9.154;2022-10-03T14:36:19;8.07;;;4.10;;
8458;SDS011;4266;48.816;9.154;2022-10-03T14:41:37;4.80;;;3.85;;
8458;SDS011;4266;48.816;9.154;2022-10-03T14:44:03;7.75;;;4.10;;
8458;SDS011;4266;48.816;9.154;2022-10-03T14:46:28;4.22;;;3.60;;
8458;SDS011;4266;48.816;9.154;2022-10-03T14:48:55;4.30;;;3.67;;
8458;SDS011;4266;48.816;9.154;2022-10-03T14:51:22;4.60;;;3.30;;
8458;SDS011;4266;48.816;9.154;2022-10-03T14:53:51;8.25;;;3.65;;
8458;SDS011;4266;48.816;9.154;2022-10-03T14:56:15;5.80;;;4.07;;
8458;SDS011;4266;48.816;9.154;2022-10-03T14:58:43;7.05;;;4.05;;
8458;SDS011;4266;48.816;9.154;2022-10-03T15:01:14;5.10;;;3.87;;
8458;SDS011;4266;48.816;9.154;2022-10-03T15:03:39;5.32;;;3.60;;
8458;SDS011;4266;48.816;9.154;2022-10-03T15:06:17;4.80;;;3.47;;
8458;SDS011;4266;48.816;9.154;2022-10-03T15:08:48;7.85;;;3.78;;
8458;SDS011;4266;48.816;9.154;2022-10-03T15:11:14;5.75;;;3.70;;
8458;SDS011;4266;48.816;9.154;2022-10-03T15:13:41;6.72;;;4.03;;
8458;SDS011;4266;48.816;9.154;2022-10-03T15:16:05;6.75;;;3.95;;
8458;SDS011;4266;48.816;9.154;2022-10-03T15:18:31;8.52;;;4.40;;
8458;SDS011;4266;48.816;9.154;2022-10-03T15:20:56;6.32;;;3.78;;
8458;SDS011;4266;48.816;9.154;2022-10-03T15:23:41;4.25;;;3.42;;
8458;SDS011;4266;48.816;9.154;2022-10-03T15:26:08;7.47;;;4.25;;
8458;SDS011;4266;48.816;9.154;2022-10-03T15:28:35;8.65;;;3.55;;
8458;SDS011;4266;48.816;9.154;2022-10-03T15:31:07;5.85;;;3.95;;
8458;SDS011;4266;48.816;9.154;2022-10-03T15:33:33;5.53;;;3.42;;
8458;SDS011;4266;48.816;9.154;2022-10-03T15:36:02;4.78;;;3.47;;
8458;SDS011;4266;48.816;9.154;2022-10-03T15:38:27;5.25;;;3.80;;
8458;SDS011;4266;48.816;9.154;2022-10-03T15:40:51;4.80;;;3.47;;
8458;SDS011;4266;48.816;9.154;2022-10-03T15:43:25;5.65;;;3.72;;
8458;SDS011;4266;48.816;9.154;2022-10-03T15:45:48;8.23;;;3.80;;
8458;SDS011;4266;48.816;9.154;2022-10-03T15:48:15;8.38;;;4.37;;
8458;SDS011;4266;48.816;9.154;2022-10-03T15:50:40;4.57;;;3.70;;
8458;SDS011;4266;48.816;9.154;2022-10-03T15:53:07;5.30;;;3.70;;
8458;SDS011;4266;48.816;9.154;2022-10-03T15:55:36;7.23;;;4.03;;
8458;SDS011;4266;48.816;9.154;2022-10-03T15:58:07;6.30;;;4.33;;
8458;SDS011;4266;48.816;9.154;2022-10-03T16:00:31;6.37;;;4.10;;
8458;SDS011;4266;48.816;9.154;2022-10-03T16:02:59;11.37;;;3.77;;
8458;SDS011;4266;48.816;9.154;2022-10-03T16:05:22;6.80;;;4.17;;
8458;SDS011;4266;48.816;9.154;2022-10-03T16:07:55;5.83;;;3.90;;
8458;SDS011;4266;48.816;9.154;2022-10-03T16:10:23;8.03;;;4.23;;
8458;SDS011;4266;48.816;9.154;2022-10-03T16:12:51;14.60;;;4.37;;
8458;SDS011;4266;48.816;9.154;2022-10-03T16:15:19;7.30;;;3.83;;
8458;SDS011;4266;48.816;9.154;2022-10-03T16:18:00;7.07;;;4.27;;
8458;SDS011;4266;48.816;9.154;2022-10-03T16:20:28;9.63;;;4.73;;
8458;SDS011;4266;48.816;9.154;2022-10-03T16:22:53;7.70;;;4.20;;
8458;SDS011;4266;48.816;9.154;2022-10-03T16:25:21;10.60;;;4.57;;
8458;SDS011;4266;48.816;9.154;2022-10-03T16:27:58;7.87;;;4.77;;
8458;SDS011;4266;48.816;9.154;2022-10-03T16:30:25;4.97;;;4.03;;
8458;SDS011;4266;48.816;9.154;2022-10-03T16:32:53;8.50;;;4.10;;
8458;SDS011;4266;48.816;9.154;2022-10-03T16:35:40;5.20;;;4.23;;
8458;SDS011;4266;48.816;9.154;2022-10-03T16:38:05;9.67;;;4.73;;
8458;SDS011;4266;48.816;9.154;2022-10-03T16:40:29;7.20;;;4.80;;
8458;SDS011;4266;48.816;9.154;2022-10-03T16:42:56;7.70;;;4.87;;
8458;SDS011;4266;48.816;9.154;2022-10-03T16:45:28;8.93;;;4.57;;
8458;SDS011;4266;48.816;9.154;2022-10-03T16:47:52;8.77;;;5.00;;
8458;SDS011;4266;48.816;9.154;2022-10-03T16:50:19;6.23;;;4.60;;
8458;SDS011;4266;48.816;9.154;2022-10-03T16:52:50;7.10;;;4.80;;
8458;SDS011;4266;48.816;9.154;2022-10-03T16:55:20;11.13;;;4.90;;
8458;SDS011;4266;48.816;9.154;2022-10-03T16:57:48;7.63;;;4.57;;
8458;SDS011;4266;48.816;9.154;2022-10-03T17:00:33;11.23;;;4.70;;
8458;SDS011;4266;48.816;9.154;2022-10-03T17:03:16;9.27;;;4.80;;
8458;SDS011;4266;48.816;9.154;2022-10-03T17:05:42;7.37;;;6.03;;
8458;SDS011;4266;48.816;9.154;2022-10-03T17:08:08;8.40;;;6.50;;
8458;SDS011;4266;48.816;9.154;2022-10-03T17:10:34;10.40;;;6.37;;
8458;SDS011;4266;48.816;9.154;2022-10-03T17:13:02;15.17;;;9.30;;
8458;SDS011;4266;48.816;9.154;2022-10-03T17:15:27;9.57;;;8.23;;
8458;SDS011;4266;48.816;9.154;2022-10-03T17:17:53;9.03;;;5.93;;
8458;SDS011;4266;48.816;9.154;2022-10-03T17:20:21;14.47;;;7.47;;
8458;SDS011;4266;48.816;9.154;2022-10-03T17:22:52;13.63;;;9.30;;
8458;SDS011;4266;48.816;9.154;2022-10-03T17:28:15;14.50;;;8.43;;
8458;SDS011;4266;48.816;9.154;2022-10-03T17:30:47;17.20;;;9.57;;
8458;SDS011;4266;48.816;9.154;2022-10-03T17:36:02;14.57;;;7.60;;
8458;SDS011;4266;48.816;9.154;2022-10-03T17:38:29;12.53;;;8.37;;
8458;SDS011;4266;48.816;9.154;2022-10-03T17:43:44;14.63;;;8.80;;
8458;SDS011;4266;48.816;9.154;2022-10-03T17:46:19;9.67;;;7.50;;
8458;SDS011;4266;48.816;9.154;2022-10-03T17:48:57;8.80;;;6.67;;
8458;SDS011;4266;48.816;9.154;2022-10-03T17:51:26;11.13;;;6.53;;
8458;SDS011;4266;48.816;9.154;2022-10-03T17:53:50;11.40;;;7.27;;
8458;SDS011;4266;48.816;9.154;2022-10-03T17:56:19;10.93;;;6.50;;
8458;SDS011;4266;48.816;9.154;2022-10-03T17:58:50;12.80;;;7.37;;
8458;SDS011;4266;48.816;9.154;2022-10-03T18:01:15;17.23;;;7.73;;
8458;SDS011;4266;48.816;9.154;2022-10-03T18:08:48;11.70;;;6.53;;
8458;SDS011;4266;48.816;9.154;2022-10-03T18:11:18;10.83;;;6.87;;
8458;SDS011;4266;48.816;9.154;2022-10-03T18:13:43;10.90;;;7.37;;
8458;SDS011;4266;48.816;9.154;2022-10-03T18:16:45;9.87;;;7.17;;
8458;SDS011;4266;48.816;9.154;2022-10-03T18:18:55;11.53;;;7.90;;
8458;SDS011;4266;48.816;9.154;2022-10-03T18:21:42;13.77;;;7.90;;
8458;SDS011;4266;48.816;9.154;2022-10-03T18:24:14;12.00;;;8.07;;
8458;SDS011;4266;48.816;9.154;2022-10-03T18:27:02;12.40;;;9.13;;
8458;SDS011;4266;48.816;9.154;2022-10-03T18:30:39;17.70;;;9.07;;
8458;SDS011;4266;48.816;9.154;2022-10-03T18:32:12;10.40;;;9.07;;
8458;SDS011;4266;48.816;9.154;2022-10-03T18:34:42;14.83;;;7.83;;
8458;SDS011;4266;48.816;9.154;2022-10-03T18:37:16;10.00;;;7.93;;
8458;SDS011;4266;48.816;9.154;2022-10-03T18:39:57;10.57;;;8.27;;
8458;SDS011;4266;48.816;9.154;2022-10-03T18:42:24;14.03;;;9.30;;
8458;SDS011;4266;48.816;9.154;2022-10-03T18:44:49;11.93;;;9.13;;
8458;SDS011;4266;48.816;9.154;2022-10-03T18:47:19;12.97;;;8.70;;
8458;SDS011;4266;48.816;9.154;2022-10-03T18:49:49;13.23;;;8.87;;
8458;SDS011;4266;48.816;9.154;2022-10-03T18:52:15;13.40;;;10.47;;
8458;SDS011;4266;48.816;9.154;2022-10-03T18:54:47;11.53;;;9.73;;
8458;SDS011;4266;48.816;9.154;2022-10-03T18:57:24;16.83;;;11.13;;
8458;SDS011;4266;48.816;9.154;2022-10-03T19:00:00;19.00;;;12.37;;
8458;SDS011;4266;48.816;9.154;2022-10-03T19:02:32;13.03;;;9.67;;
8458;SDS011;4266;48.816;9.154;2022-10-03T19:05:00;18.87;;;11.20;;
8458;SDS011;4266;48.816;9.154;2022-10-03T19:07:28;14.37;;;10.17;;
8458;SDS011;4266;48.816;9.154;2022-10-03T19:12:46;13.83;;;11.00;;
8458;SDS011;4266;48.816;9.154;2022-10-03T19:15:16;14.53;;;11.33;;
8458;SDS011;4266;48.816;9.154;2022-10-03T19:20:24;17.37;;;11.97;;
8458;SDS011;4266;48.816;9.154;2022-10-03T19:22:56;14.77;;;11.60;;
8458;SDS011;4266;48.816;9.154;2022-10-03T19:25:37;17.03;;;11.20;;
8458;SDS011;4266;48.816;9.154;2022-10-03T19:28:24;15.43;;;11.97;;
8458;SDS011;4266;48.816;9.154;2022-10-03T19:30:55;16.47;;;12.40;;
8458;SDS011;4266;48.816;9.154;2022-10-03T19:33:21;17.33;;;12.87;;
8458;SDS011;4266;48.816;9.154;2022-10-03T19:35:46;19.37;;;12.63;;
8458;SDS011;4266;48.816;9.154;2022-10-03T19:38:15;16.47;;;12.40;;
8458;SDS011;4266;48.816;9.154;2022-10-03T19:40:54;19.13;;;12.57;;
8458;SDS011;4266;48.816;9.154;2022-10-03T19:43:28;16.20;;;12.17;;
8458;SDS011;4266;48.816;9.154;2022-10-03T19:45:52;18.77;;;12.63;;
8458;SDS011;4266;48.816;9.154;2022-10-03T19:48:40;17.20;;;12.00;;
8458;SDS011;4266;48.816;9.154;2022-10-03T19:53:39;18.03;;;12.93;;
8458;SDS011;4266;48.816;9.154;2022-10-03T19:56:03;18.30;;;13.30;;